createdAt,value
2023-04-27T00:00:55.425Z,95004.00
2023-04-27T00:01:55.504Z,95004.00
2023-04-27T00:02:55.628Z,95002.00
2023-04-27T00:03:55.612Z,95000.00
2023-04-27T00:04:55.896Z,94998.00
2023-04-27T00:05:55.737Z,94992.00
2023-04-27T00:06:55.505Z,94998.00
2023-04-27T00:07:55.529Z,94996.00
2023-04-27T00:08:55.628Z,94992.00
2023-04-27T00:09:56.078Z,94992.00
2023-04-27T00:10:55.590Z,94992.00
2023-04-27T00:11:55.586Z,94992.00
2023-04-27T00:12:55.617Z,94990.00
2023-04-27T00:13:55.624Z,94992.00
2023-04-27T00:14:56.074Z,94990.00
2023-04-27T00:15:55.690Z,94990.00
2023-04-27T00:16:55.683Z,94992.00
2023-04-27T00:17:55.756Z,94992.00
2023-04-27T00:18:55.696Z,94990.00
2023-04-27T00:19:55.725Z,94990.00
2023-04-27T00:20:55.749Z,94990.00
2023-04-27T00:21:55.750Z,94994.00
2023-04-27T00:22:55.776Z,94990.00
2023-04-27T00:23:55.797Z,94990.00
2023-04-27T00:24:55.829Z,94988.00
2023-04-27T00:25:55.821Z,94986.00
2023-04-27T00:26:55.841Z,94988.00
2023-04-27T00:27:55.884Z,94984.00
2023-04-27T00:28:55.927Z,94986.00
2023-04-27T00:29:56.090Z,94986.00
2023-04-27T00:30:55.946Z,94986.00
2023-04-27T00:31:55.969Z,94986.00
2023-04-27T00:32:56.019Z,94986.00
2023-04-27T00:33:55.976Z,94986.00
2023-04-27T00:34:56.081Z,94984.00
2023-04-27T00:35:55.981Z,94988.00
2023-04-27T00:36:56.031Z,94984.00
2023-04-27T00:37:56.052Z,94988.00
2023-04-27T00:38:56.088Z,94988.00
2023-04-27T00:39:56.097Z,94982.00
2023-04-27T00:40:56.088Z,94980.00
2023-04-27T00:41:56.132Z,94980.00
2023-04-27T00:42:56.156Z,94978.00
2023-04-27T00:43:56.144Z,94978.00
2023-04-27T00:44:56.180Z,94978.00
2023-04-27T00:45:56.273Z,94978.00
2023-04-27T00:46:56.223Z,94980.00
2023-04-27T00:47:56.304Z,94982.00
2023-04-27T00:48:56.248Z,94980.00
2023-04-27T00:49:56.279Z,94982.00
2023-04-27T00:50:56.256Z,94982.00
2023-04-27T00:51:56.271Z,94986.00
2023-04-27T00:52:56.282Z,94982.00
2023-04-27T00:53:56.330Z,94984.00
2023-04-27T00:54:56.314Z,94982.00
2023-04-27T00:55:56.326Z,94978.00
2023-04-27T00:56:56.360Z,94972.00
2023-04-27T00:57:56.427Z,94976.00
2023-04-27T00:58:56.374Z,94974.00
2023-04-27T00:59:56.414Z,94976.00
2023-04-27T01:00:56.442Z,94968.00
2023-04-27T01:01:56.447Z,94976.00
2023-04-27T01:02:56.681Z,94972.00
2023-04-27T01:03:56.618Z,94970.00
2023-04-27T01:04:56.513Z,94972.00
2023-04-27T01:05:56.471Z,94972.00
2023-04-27T01:06:56.509Z,94972.00
2023-04-27T01:07:56.519Z,94976.00
2023-04-27T01:08:56.564Z,94980.00
2023-04-27T01:09:56.590Z,94978.00
2023-04-27T01:10:56.604Z,94978.00
2023-04-27T01:11:56.620Z,94976.00
2023-04-27T01:12:56.659Z,94976.00
2023-04-27T01:13:56.680Z,94980.00
2023-04-27T01:14:56.678Z,94978.00
2023-04-27T01:15:56.679Z,94980.00
2023-04-27T01:16:56.848Z,94980.00
2023-04-27T01:17:56.792Z,94978.00
2023-04-27T01:18:56.749Z,94976.00
2023-04-27T01:19:56.805Z,94974.00
2023-04-27T01:20:56.754Z,94972.00
2023-04-27T01:21:56.796Z,94976.00
2023-04-27T01:22:56.808Z,94978.00
2023-04-27T01:23:56.851Z,94978.00
2023-04-27T01:24:56.837Z,94976.00
2023-04-27T01:25:56.852Z,94974.00
2023-04-27T01:26:56.896Z,94972.00
2023-04-27T01:27:56.895Z,94970.00
2023-04-27T01:28:56.925Z,94968.00
2023-04-27T01:29:56.960Z,94968.00
2023-04-27T01:30:56.984Z,94970.00
2023-04-27T01:31:56.976Z,94970.00
2023-04-27T01:32:57.045Z,94970.00
2023-04-27T01:33:57.010Z,94974.00
2023-04-27T01:34:57.045Z,94974.00
2023-04-27T01:35:57.069Z,94974.00
2023-04-27T01:36:57.099Z,94974.00
2023-04-27T01:37:57.116Z,94970.00
2023-04-27T01:38:57.108Z,94970.00
2023-04-27T01:39:57.158Z,94974.00
2023-04-27T01:40:57.201Z,94968.00
2023-04-27T01:41:58.534Z,94967.00
2023-04-27T01:42:57.213Z,94968.00
2023-04-27T01:43:57.239Z,94970.00
2023-04-27T01:44:57.256Z,94970.00
2023-04-27T01:45:57.316Z,94970.00
2023-04-27T01:46:57.291Z,94968.00
2023-04-27T01:47:57.381Z,94968.00
2023-04-27T01:48:57.369Z,94967.00
2023-04-27T01:49:57.381Z,94968.00
2023-04-27T01:50:58.104Z,94968.00
2023-04-27T01:51:57.367Z,94972.00
2023-04-27T01:52:57.394Z,94970.00
2023-04-27T01:53:57.431Z,94968.00
2023-04-27T01:54:57.476Z,94972.00
2023-04-27T01:55:57.467Z,94970.00
2023-04-27T01:56:57.491Z,94970.00
2023-04-27T01:57:57.516Z,94968.00
2023-04-27T01:58:57.543Z,94965.00
2023-04-27T01:59:57.596Z,94965.00
2023-04-27T02:00:57.576Z,94970.00
2023-04-27T02:01:57.713Z,94968.00
2023-04-27T02:02:57.850Z,94972.00
2023-04-27T02:03:57.885Z,94970.00
2023-04-27T02:04:57.706Z,94974.00
2023-04-27T02:05:57.724Z,94974.00
2023-04-27T02:06:57.742Z,94974.00
2023-04-27T02:07:57.758Z,94972.00
2023-04-27T02:08:57.773Z,94972.00
2023-04-27T02:09:57.786Z,94967.00
2023-04-27T02:10:57.835Z,94967.00
2023-04-27T02:11:57.841Z,94967.00
2023-04-27T02:12:57.875Z,94968.00
2023-04-27T02:13:57.897Z,94970.00
2023-04-27T02:14:57.893Z,94970.00
2023-04-27T02:15:57.962Z,94970.00
2023-04-27T02:16:57.957Z,94974.00
2023-04-27T02:17:58.011Z,94980.00
2023-04-27T02:18:58.018Z,94980.00
2023-04-27T02:19:58.012Z,94976.00
2023-04-27T02:20:58.065Z,94978.00
2023-04-27T02:21:58.089Z,94976.00
2023-04-27T02:22:58.075Z,94974.00
2023-04-27T02:23:58.131Z,94974.00
2023-04-27T02:24:58.125Z,94970.00
2023-04-27T02:25:58.173Z,94974.00
2023-04-27T02:26:58.217Z,94978.00
2023-04-27T02:27:58.211Z,94984.00
2023-04-27T02:28:58.242Z,94986.00
2023-04-27T02:29:58.280Z,94990.00
2023-04-27T02:30:58.277Z,94990.00
2023-04-27T02:31:58.366Z,94992.00
2023-04-27T02:32:58.355Z,94990.00
2023-04-27T02:33:58.323Z,94990.00
2023-04-27T02:34:58.380Z,94988.00
2023-04-27T02:35:58.402Z,94984.00
2023-04-27T02:36:58.425Z,94988.00
2023-04-27T02:37:58.410Z,94990.00
2023-04-27T02:38:58.445Z,94990.00
2023-04-27T02:39:58.473Z,94992.00
2023-04-27T02:40:58.534Z,94992.00
2023-04-27T02:41:58.531Z,94990.00
2023-04-27T02:42:58.524Z,94986.00
2023-04-27T02:43:58.571Z,94984.00
2023-04-27T02:44:58.618Z,94982.00
2023-04-27T02:45:58.614Z,94986.00
2023-04-27T02:46:58.675Z,94988.00
2023-04-27T02:47:58.698Z,94988.00
2023-04-27T02:48:58.701Z,94988.00
2023-04-27T02:49:58.702Z,94988.00
2023-04-27T02:50:58.754Z,94988.00
2023-04-27T02:51:58.759Z,94988.00
2023-04-27T02:52:58.769Z,94988.00
2023-04-27T02:53:58.802Z,94988.00
2023-04-27T02:54:58.831Z,94988.00
2023-04-27T02:55:58.871Z,94988.00
2023-04-27T02:56:58.901Z,94990.00
2023-04-27T02:57:58.901Z,94990.00
2023-04-27T02:58:58.959Z,94992.00
2023-04-27T02:59:58.980Z,94994.00
2023-04-27T03:00:59.024Z,94994.00
2023-04-27T03:01:59.031Z,94994.00
2023-04-27T03:02:59.196Z,94994.00
2023-04-27T03:03:59.209Z,94992.00
2023-04-27T03:04:59.139Z,94990.00
2023-04-27T03:05:59.175Z,94988.00
2023-04-27T03:06:59.173Z,94986.00
2023-04-27T03:07:59.221Z,94986.00
2023-04-27T03:08:59.244Z,94984.00
2023-04-27T03:09:59.278Z,94986.00
2023-04-27T03:10:59.341Z,94988.00
2023-04-27T03:11:59.362Z,94990.00
2023-04-27T03:12:59.355Z,94988.00
2023-04-27T03:13:59.432Z,94984.00
2023-04-27T03:14:59.458Z,94988.00
2023-04-27T03:15:59.506Z,94986.00
2023-04-27T03:16:59.509Z,94986.00
2023-04-27T03:17:59.548Z,94986.00
2023-04-27T03:18:59.558Z,94992.00
2023-04-27T03:19:59.614Z,94994.00
2023-04-27T03:20:59.636Z,94990.00
2023-04-27T03:21:59.664Z,94992.00
2023-04-27T03:22:59.696Z,94994.00
2023-04-27T03:23:59.736Z,94994.00
2023-04-27T03:24:59.789Z,94996.00
2023-04-27T03:25:59.788Z,94998.00
2023-04-27T03:26:59.818Z,94998.00
2023-04-27T03:27:59.946Z,95000.00
2023-04-27T03:28:59.923Z,95000.00
2023-04-27T03:30:00.169Z,95000.00
2023-04-27T03:30:59.954Z,94998.00
2023-04-27T03:32:00.049Z,94998.00
2023-04-27T03:33:00.061Z,94998.00
2023-04-27T03:34:00.064Z,94998.00
2023-04-27T03:35:00.156Z,94998.00
2023-04-27T03:36:00.157Z,94998.00
2023-04-27T03:37:00.176Z,95000.00
2023-04-27T03:38:00.203Z,95002.00
2023-04-27T03:39:00.254Z,95006.00
2023-04-27T03:40:00.285Z,95004.00
2023-04-27T03:41:00.339Z,95004.00
2023-04-27T03:42:00.339Z,95004.00
2023-04-27T03:43:00.408Z,95008.00
2023-04-27T03:44:00.432Z,95008.00
2023-04-27T03:45:00.468Z,95008.00
2023-04-27T03:46:00.479Z,95012.00
2023-04-27T03:47:00.532Z,95010.00
2023-04-27T03:48:00.736Z,95010.00
2023-04-27T03:49:00.608Z,95012.00
2023-04-27T03:50:00.638Z,95014.00
2023-04-27T03:51:00.668Z,95014.00
2023-04-27T03:52:00.715Z,95015.00
2023-04-27T03:53:00.725Z,95015.00
2023-04-27T03:54:00.757Z,95014.00
2023-04-27T03:55:00.805Z,95014.00
2023-04-27T03:56:00.856Z,95014.00
2023-04-27T03:57:00.884Z,95015.00
2023-04-27T03:58:00.931Z,95017.00
2023-04-27T03:59:00.974Z,95014.00
2023-04-27T04:00:01.128Z,95017.00
2023-04-27T04:01:01.049Z,95017.00
2023-04-27T04:02:01.497Z,95019.00
2023-04-27T04:03:01.291Z,95029.00
2023-04-27T04:04:01.291Z,95023.00
2023-04-27T04:05:01.267Z,95027.00
2023-04-27T04:06:01.226Z,95027.00
2023-04-27T04:07:01.249Z,95035.00
2023-04-27T04:08:01.318Z,95033.00
2023-04-27T04:09:01.396Z,95035.00
2023-04-27T04:10:01.350Z,95039.00
2023-04-27T04:11:01.407Z,95041.00
2023-04-27T04:12:01.439Z,95043.00
2023-04-27T04:13:01.449Z,95047.00
2023-04-27T04:14:01.526Z,95047.00
2023-04-27T04:15:01.600Z,95049.00
2023-04-27T04:16:01.694Z,95053.00
2023-04-27T04:17:01.666Z,95051.00
2023-04-27T04:18:01.675Z,95055.00
2023-04-27T04:19:01.731Z,95053.00
2023-04-27T04:20:01.753Z,95055.00
2023-04-27T04:21:01.813Z,95061.00
2023-04-27T04:22:01.819Z,95061.00
2023-04-27T04:23:01.852Z,95066.00
2023-04-27T04:24:01.905Z,95064.00
2023-04-27T04:25:01.952Z,95070.00
2023-04-27T04:26:02.009Z,95070.00
2023-04-27T04:27:02.019Z,95072.00
2023-04-27T04:28:02.079Z,95072.00
2023-04-27T04:29:02.102Z,95072.00
2023-04-27T04:30:02.157Z,95070.00
2023-04-27T04:31:02.291Z,95074.00
2023-04-27T04:32:02.233Z,95076.00
2023-04-27T04:33:02.311Z,95076.00
2023-04-27T04:34:02.314Z,95078.00
2023-04-27T04:35:02.307Z,95080.00
2023-04-27T04:36:02.371Z,95080.00
2023-04-27T04:37:02.427Z,95082.00
2023-04-27T04:38:02.431Z,95082.00
2023-04-27T04:39:02.470Z,95084.00
2023-04-27T04:40:02.510Z,95084.00
2023-04-27T04:41:02.582Z,95086.00
2023-04-27T04:42:02.614Z,95086.00
2023-04-27T04:43:02.620Z,95090.00
2023-04-27T04:44:02.659Z,95088.00
2023-04-27T04:45:02.714Z,95092.00
2023-04-27T04:46:02.755Z,95092.00
2023-04-27T04:47:02.915Z,95094.00
2023-04-27T04:48:02.889Z,95098.00
2023-04-27T04:49:02.871Z,95098.00
2023-04-27T04:50:02.896Z,95100.00
2023-04-27T04:51:02.908Z,95102.00
2023-04-27T04:52:02.960Z,95100.00
2023-04-27T04:53:02.988Z,95102.00
2023-04-27T04:54:03.040Z,95102.00
2023-04-27T04:55:03.067Z,95104.00
2023-04-27T04:56:03.105Z,95102.00
2023-04-27T04:57:03.126Z,95102.00
2023-04-27T04:58:03.193Z,95106.00
2023-04-27T04:59:03.246Z,95108.00
2023-04-27T05:00:03.286Z,95109.00
2023-04-27T05:01:03.338Z,95109.00
2023-04-27T05:02:03.375Z,95108.00
2023-04-27T05:03:03.440Z,95104.00
2023-04-27T05:04:03.562Z,95104.00
2023-04-27T05:05:03.504Z,95100.00
2023-04-27T05:06:03.511Z,95104.00
2023-04-27T05:07:03.539Z,95102.00
2023-04-27T05:08:03.598Z,95104.00
2023-04-27T05:09:03.608Z,95108.00
2023-04-27T05:10:04.168Z,95108.00
2023-04-27T05:11:03.742Z,95109.00
2023-04-27T05:12:03.735Z,95109.00
2023-04-27T05:14:03.860Z,95111.00
2023-04-27T05:15:03.842Z,95111.00
2023-04-27T05:16:03.927Z,95115.00
2023-04-27T05:17:03.920Z,95119.00
2023-04-27T05:18:04.032Z,95123.00
2023-04-27T05:19:03.996Z,95125.00
2023-04-27T05:20:04.064Z,95127.00
2023-04-27T05:21:04.129Z,95127.00
2023-04-27T05:22:04.137Z,95127.00
2023-04-27T05:23:04.173Z,95129.00
2023-04-27T05:24:04.190Z,95127.00
2023-04-27T05:25:04.242Z,95131.00
2023-04-27T05:26:04.286Z,95131.00
2023-04-27T05:27:04.303Z,95127.00
2023-04-27T05:28:04.360Z,95131.00
2023-04-27T05:29:04.404Z,95129.00
2023-04-27T05:30:04.452Z,95127.00
2023-04-27T05:31:04.457Z,95123.00
2023-04-27T05:32:04.505Z,95125.00
2023-04-27T05:33:04.560Z,95125.00
2023-04-27T05:34:04.614Z,95125.00
2023-04-27T05:35:04.627Z,95131.00
2023-04-27T05:36:05.176Z,95129.00
2023-04-27T05:37:04.694Z,95129.00
2023-04-27T05:38:04.742Z,95131.00
2023-04-27T05:39:04.789Z,95129.00
2023-04-27T05:40:04.835Z,95133.00
2023-04-27T05:41:04.876Z,95133.00
2023-04-27T05:42:04.914Z,95135.00
2023-04-27T05:43:04.958Z,95137.00
2023-04-27T05:44:05.043Z,95139.00
2023-04-27T05:45:05.080Z,95147.00
2023-04-27T05:46:05.146Z,95147.00
2023-04-27T05:47:05.125Z,95147.00
2023-04-27T05:48:05.239Z,95139.00
2023-04-27T05:49:05.246Z,95147.00
2023-04-27T05:50:05.285Z,95149.00
2023-04-27T05:51:05.704Z,95147.00
2023-04-27T05:52:05.327Z,95139.00
2023-04-27T05:53:05.365Z,95149.00
2023-04-27T05:54:05.424Z,95147.00
2023-04-27T05:55:05.458Z,95147.00
2023-04-27T05:56:05.489Z,95139.00
2023-04-27T05:57:05.525Z,95139.00
2023-04-27T05:58:08.946Z,95149.00
2023-04-27T05:59:05.595Z,95149.00
2023-04-27T06:00:05.533Z,95151.00
2023-04-27T06:01:05.679Z,95153.00
2023-04-27T06:02:05.632Z,95151.00
2023-04-27T06:03:05.662Z,95149.00
2023-04-27T06:04:05.667Z,95147.00
2023-04-27T06:05:05.522Z,95147.00
2023-04-27T06:06:05.526Z,95147.00
2023-04-27T06:07:05.489Z,95137.00
2023-04-27T06:08:05.523Z,95137.00
2023-04-27T06:09:05.472Z,95137.00
2023-04-27T06:10:05.507Z,95149.00
2023-04-27T06:11:05.501Z,95147.00
2023-04-27T06:12:05.495Z,95153.00
2023-04-27T06:13:05.476Z,95151.00
2023-04-27T06:14:05.461Z,95153.00
2023-04-27T06:15:05.452Z,95153.00
2023-04-27T06:16:05.500Z,95155.00
2023-04-27T06:17:05.463Z,95153.00
2023-04-27T06:18:05.501Z,95153.00
2023-04-27T06:19:05.443Z,95155.00
2023-04-27T06:20:05.426Z,95157.00
2023-04-27T06:21:05.697Z,95159.00
2023-04-27T06:22:05.401Z,95165.00
2023-04-27T06:23:05.399Z,95166.00
2023-04-27T06:24:05.370Z,95165.00
2023-04-27T06:25:05.396Z,95163.00
2023-04-27T06:26:05.359Z,95165.00
2023-04-27T06:27:05.407Z,95165.00
2023-04-27T06:28:05.380Z,95163.00
2023-04-27T06:29:05.371Z,95161.00
2023-04-27T06:30:05.363Z,95165.00
2023-04-27T06:31:05.408Z,95163.00
2023-04-27T06:32:05.340Z,95161.00
2023-04-27T06:33:05.434Z,95159.00
2023-04-27T06:34:05.319Z,95159.00
2023-04-27T06:35:05.326Z,95157.00
2023-04-27T06:36:05.714Z,95161.00
2023-04-27T06:37:05.296Z,95159.00
2023-04-27T06:38:07.578Z,95161.00
2023-04-27T06:39:05.272Z,95163.00
2023-04-27T06:40:05.291Z,95163.00
2023-04-27T06:41:05.250Z,95163.00
2023-04-27T06:42:05.264Z,95163.00
2023-04-27T06:43:05.256Z,95161.00
2023-04-27T06:44:05.251Z,95161.00
2023-04-27T06:45:05.244Z,95166.00
2023-04-27T06:46:05.369Z,95168.00
2023-04-27T06:47:05.260Z,95172.00
2023-04-27T06:48:05.254Z,95168.00
2023-04-27T06:49:05.244Z,95166.00
2023-04-27T06:50:05.211Z,95168.00
2023-04-27T06:51:05.731Z,95174.00
2023-04-27T06:52:05.194Z,95176.00
2023-04-27T06:53:05.217Z,95176.00
2023-04-27T06:54:05.181Z,95176.00
2023-04-27T06:55:05.180Z,95176.00
2023-04-27T06:56:05.199Z,95178.00
2023-04-27T06:57:05.153Z,95178.00
2023-04-27T06:58:05.217Z,95176.00
2023-04-27T06:59:05.177Z,95176.00
2023-04-27T07:00:05.139Z,95176.00
2023-04-27T07:01:05.245Z,95180.00
2023-04-27T07:02:05.136Z,95178.00
2023-04-27T07:03:05.201Z,95176.00
2023-04-27T07:04:05.202Z,95180.00
2023-04-27T07:05:05.157Z,95178.00
2023-04-27T07:06:05.099Z,95178.00
2023-04-27T07:07:05.129Z,95174.00
2023-04-27T07:08:07.783Z,95176.00
2023-04-27T07:09:13.190Z,95178.00
2023-04-27T07:10:06.098Z,95178.00
2023-04-27T07:11:05.099Z,95176.00
2023-04-27T07:12:05.050Z,95176.00
2023-04-27T07:13:07.320Z,95176.00
2023-04-27T07:14:05.059Z,95176.00
2023-04-27T07:15:05.033Z,95176.00
2023-04-27T07:16:05.087Z,95172.00
2023-04-27T07:17:05.022Z,95176.00
2023-04-27T07:18:05.071Z,95172.00
2023-04-27T07:19:05.024Z,95170.00
2023-04-27T07:20:04.975Z,95172.00
2023-04-27T07:21:04.995Z,95172.00
2023-04-27T07:22:04.992Z,95170.00
2023-04-27T07:23:04.982Z,95172.00
2023-04-27T07:24:04.974Z,95170.00
2023-04-27T07:25:04.954Z,95168.00
2023-04-27T07:26:05.200Z,95170.00
2023-04-27T07:27:04.966Z,95172.00
2023-04-27T07:28:04.941Z,95166.00
2023-04-27T07:29:14.518Z,95166.00
2023-04-27T07:30:05.907Z,95166.00
2023-04-27T07:31:04.926Z,95166.00
2023-04-27T07:32:04.940Z,95168.00
2023-04-27T07:33:04.965Z,95168.00
2023-04-27T07:34:04.894Z,95166.00
2023-04-27T07:35:04.884Z,95168.00
2023-04-27T07:36:05.226Z,95168.00
2023-04-27T07:37:04.895Z,95168.00
2023-04-27T07:38:04.848Z,95172.00
2023-04-27T07:39:04.852Z,95170.00
2023-04-27T07:40:04.901Z,95174.00
2023-04-27T07:41:04.984Z,95174.00
2023-04-27T07:42:05.038Z,95174.00
2023-04-27T07:43:05.094Z,95176.00
2023-04-27T07:44:05.134Z,95178.00
2023-04-27T07:45:05.201Z,95180.00
2023-04-27T07:46:05.833Z,95182.00
2023-04-27T07:47:05.350Z,95180.00
2023-04-27T07:48:05.409Z,95184.00
2023-04-27T07:49:05.472Z,95186.00
2023-04-27T07:50:05.506Z,95186.00
2023-04-27T07:51:05.598Z,95186.00
2023-04-27T07:52:05.624Z,95190.00
2023-04-27T07:53:05.671Z,95186.00
2023-04-27T07:54:05.733Z,95188.00
2023-04-27T07:55:05.782Z,95188.00
2023-04-27T07:56:05.862Z,95188.00
2023-04-27T07:57:05.886Z,95190.00
2023-04-27T07:58:05.951Z,95194.00
2023-04-27T07:59:05.991Z,95194.00
2023-04-27T08:00:06.024Z,95194.00
2023-04-27T08:01:06.074Z,95194.00
2023-04-27T08:02:18.378Z,95196.00
2023-04-27T08:03:07.263Z,95198.00
2023-04-27T08:04:06.482Z,95200.00
2023-04-27T08:05:06.239Z,95200.00
2023-04-27T08:06:06.270Z,95204.00
2023-04-27T08:07:06.853Z,95202.00
2023-04-27T08:08:06.281Z,95202.00
2023-04-27T08:09:06.268Z,95198.00
2023-04-27T08:10:06.049Z,95198.00
2023-04-27T08:11:06.044Z,95202.00
2023-04-27T08:12:06.054Z,95200.00
2023-04-27T08:13:06.035Z,95200.00
2023-04-27T08:14:06.052Z,95202.00
2023-04-27T08:15:06.017Z,95206.00
2023-04-27T08:16:06.129Z,95202.00
2023-04-27T08:17:06.168Z,95202.00
2023-04-27T08:18:06.147Z,95200.00
2023-04-27T08:19:06.128Z,95200.00
2023-04-27T08:20:06.162Z,95200.00
2023-04-27T08:21:06.161Z,95200.00
2023-04-27T08:22:06.179Z,95198.00
2023-04-27T08:23:06.198Z,95198.00
2023-04-27T08:24:06.189Z,95200.00
2023-04-27T08:25:06.200Z,95200.00
2023-04-27T08:26:06.705Z,95200.00
2023-04-27T08:27:06.246Z,95202.00
2023-04-27T08:28:06.256Z,95200.00
2023-04-27T08:29:15.246Z,95200.00
2023-04-27T08:30:07.285Z,95200.00
2023-04-27T08:31:06.300Z,95206.00
2023-04-27T08:32:06.224Z,95206.00
2023-04-27T08:33:06.380Z,95204.00
2023-04-27T08:34:06.229Z,95206.00
2023-04-27T08:35:06.212Z,95202.00
2023-04-27T08:36:06.219Z,95198.00
2023-04-27T08:37:06.185Z,95198.00
2023-04-27T08:38:06.184Z,95198.00
2023-04-27T08:39:06.186Z,95198.00
2023-04-27T08:40:06.179Z,95198.00
2023-04-27T08:41:18.359Z,95196.00
2023-04-27T08:42:07.172Z,95200.00
2023-04-27T08:43:06.155Z,95198.00
2023-04-27T08:44:06.168Z,95198.00
2023-04-27T08:45:06.126Z,95196.00
2023-04-27T08:46:06.161Z,95196.00
2023-04-27T08:47:06.121Z,95196.00
2023-04-27T08:48:06.158Z,95194.00
2023-04-27T08:49:06.118Z,95196.00
2023-04-27T08:50:06.138Z,95192.00
2023-04-27T08:51:06.111Z,95192.00
2023-04-27T08:52:06.068Z,95190.00
2023-04-27T08:53:06.089Z,95192.00
2023-04-27T08:54:06.092Z,95194.00
2023-04-27T08:55:06.069Z,95190.00
2023-04-27T08:56:06.062Z,95190.00
2023-04-27T08:57:06.021Z,95190.00
2023-04-27T08:58:06.056Z,95194.00
2023-04-27T08:59:06.037Z,95194.00
2023-04-27T09:00:06.020Z,95194.00
2023-04-27T09:01:06.007Z,95196.00
2023-04-27T09:02:06.109Z,95194.00
2023-04-27T09:03:06.131Z,95196.00
2023-04-27T09:04:06.350Z,95190.00
2023-04-27T09:05:06.145Z,95192.00
2023-04-27T09:06:06.378Z,95194.00
2023-04-27T09:07:06.131Z,95190.00
2023-04-27T09:08:06.133Z,95192.00
2023-04-27T09:09:06.164Z,95190.00
2023-04-27T09:10:06.195Z,95192.00
2023-04-27T09:11:06.225Z,95192.00
2023-04-27T09:12:06.267Z,95190.00
2023-04-27T09:13:06.306Z,95190.00
2023-04-27T09:14:06.322Z,95190.00
2023-04-27T09:15:06.507Z,95188.00
2023-04-27T09:16:06.467Z,95190.00
2023-04-27T09:17:06.467Z,95186.00
2023-04-27T09:18:06.548Z,95186.00
2023-04-27T09:19:06.533Z,95182.00
2023-04-27T09:20:06.559Z,95182.00
2023-04-27T09:21:06.635Z,95180.00
2023-04-27T09:22:06.666Z,95182.00
2023-04-27T09:23:06.712Z,95184.00
2023-04-27T09:24:06.741Z,95178.00
2023-04-27T09:25:06.795Z,95176.00
2023-04-27T09:26:06.826Z,95172.00
2023-04-27T09:27:06.915Z,95170.00
2023-04-27T09:28:06.948Z,95168.00
2023-04-27T09:29:07.102Z,95170.00
2023-04-27T09:30:07.042Z,95166.00
2023-04-27T09:31:07.131Z,95168.00
2023-04-27T09:32:07.139Z,95170.00
2023-04-27T09:33:07.268Z,95174.00
2023-04-27T09:34:07.238Z,95172.00
2023-04-27T09:35:07.258Z,95170.00
2023-04-27T09:36:07.321Z,95166.00
2023-04-27T09:37:07.354Z,95165.00
2023-04-27T09:38:07.410Z,95163.00
2023-04-27T09:39:07.413Z,95161.00
2023-04-27T09:40:07.451Z,95163.00
2023-04-27T09:41:07.544Z,95157.00
2023-04-27T09:42:07.582Z,95157.00
2023-04-27T09:43:07.632Z,95157.00
2023-04-27T09:44:07.749Z,95155.00
2023-04-27T09:45:07.760Z,95151.00
2023-04-27T09:46:08.310Z,95151.00
2023-04-27T09:47:07.837Z,95151.00
2023-04-27T09:48:07.911Z,95149.00
2023-04-27T09:49:07.906Z,95149.00
2023-04-27T09:50:07.928Z,95147.00
2023-04-27T09:51:08.232Z,95149.00
2023-04-27T09:52:08.035Z,95147.00
2023-04-27T09:53:08.059Z,95139.00
2023-04-27T09:54:08.092Z,95139.00
2023-04-27T09:55:08.151Z,95133.00
2023-04-27T09:56:08.228Z,95131.00
2023-04-27T09:57:08.226Z,95131.00
2023-04-27T09:58:08.283Z,95127.00
2023-04-27T09:59:08.295Z,95123.00
2023-04-27T10:00:08.368Z,95123.00
2023-04-27T10:01:08.395Z,95123.00
2023-04-27T10:02:23.560Z,95123.00
2023-04-27T10:03:09.491Z,95123.00
2023-04-27T10:04:08.524Z,95121.00
2023-04-27T10:05:08.417Z,95119.00
2023-04-27T10:06:08.427Z,95117.00
2023-04-27T10:07:08.394Z,95117.00
2023-04-27T10:08:08.406Z,95115.00
2023-04-27T10:09:08.371Z,95113.00
2023-04-27T10:10:08.331Z,95117.00
2023-04-27T10:11:08.338Z,95111.00
2023-04-27T10:12:08.354Z,95111.00
2023-04-27T10:13:08.348Z,95111.00
2023-04-27T10:14:08.339Z,95111.00
2023-04-27T10:15:08.313Z,95106.00
2023-04-27T10:16:08.336Z,95106.00
2023-04-27T10:17:08.331Z,95104.00
2023-04-27T10:18:08.406Z,95100.00
2023-04-27T10:19:08.385Z,95098.00
2023-04-27T10:20:08.415Z,95096.00
2023-04-27T10:21:08.437Z,95094.00
2023-04-27T10:22:08.495Z,95092.00
2023-04-27T10:23:08.479Z,95092.00
2023-04-27T10:24:08.521Z,95088.00
2023-04-27T10:25:08.545Z,95090.00
2023-04-27T10:26:08.744Z,95088.00
2023-04-27T10:27:08.563Z,95086.00
2023-04-27T10:28:08.641Z,95088.00
2023-04-27T10:29:08.626Z,95090.00
2023-04-27T10:30:08.671Z,95088.00
2023-04-27T10:31:08.779Z,95088.00
2023-04-27T10:32:08.707Z,95088.00
2023-04-27T10:33:08.994Z,95086.00
2023-04-27T10:34:08.743Z,95086.00
2023-04-27T10:35:08.801Z,95084.00
2023-04-27T10:36:08.775Z,95082.00
2023-04-27T10:37:08.813Z,95080.00
2023-04-27T10:38:08.811Z,95080.00
2023-04-27T10:39:08.847Z,95078.00
2023-04-27T10:40:08.833Z,95074.00
2023-04-27T10:41:08.871Z,95072.00
2023-04-27T10:42:08.841Z,95072.00
2023-04-27T10:43:08.877Z,95068.00
2023-04-27T10:44:08.863Z,95066.00
2023-04-27T10:45:08.871Z,95068.00
2023-04-27T10:46:08.905Z,95066.00
2023-04-27T10:47:08.870Z,95062.00
2023-04-27T10:48:08.923Z,95066.00
2023-04-27T10:49:08.889Z,95061.00
2023-04-27T10:50:08.913Z,95059.00
2023-04-27T10:51:08.888Z,95061.00
2023-04-27T10:52:08.874Z,95061.00
2023-04-27T10:53:08.916Z,95059.00
2023-04-27T10:54:08.894Z,95059.00
2023-04-27T10:55:08.904Z,95059.00
2023-04-27T10:56:08.900Z,95057.00
2023-04-27T10:57:08.947Z,95053.00
2023-04-27T10:58:08.988Z,95051.00
2023-04-27T10:59:09.011Z,95053.00
2023-04-27T11:00:09.061Z,95051.00
2023-04-27T11:01:09.238Z,95051.00
2023-04-27T11:02:09.270Z,95047.00
2023-04-27T11:03:09.390Z,95047.00
2023-04-27T11:04:09.404Z,95045.00
2023-04-27T11:05:09.493Z,95043.00
2023-04-27T11:06:09.461Z,95041.00
2023-04-27T11:07:09.780Z,95043.00
2023-04-27T11:08:09.561Z,95043.00
2023-04-27T11:09:09.614Z,95039.00
2023-04-27T11:10:09.688Z,95043.00
2023-04-27T11:11:09.726Z,95037.00
2023-04-27T11:12:09.813Z,95039.00
2023-04-27T11:13:09.824Z,95039.00
2023-04-27T11:14:09.842Z,95039.00
2023-04-27T11:15:09.873Z,95033.00
2023-04-27T11:16:09.942Z,95039.00
2023-04-27T11:17:10.269Z,95037.00
2023-04-27T11:18:09.961Z,95035.00
2023-04-27T11:19:10.000Z,95037.00
2023-04-27T11:20:10.054Z,95039.00
2023-04-27T11:21:10.111Z,95033.00
2023-04-27T11:22:10.102Z,95035.00
2023-04-27T11:23:10.106Z,95037.00
2023-04-27T11:24:10.535Z,95035.00
2023-04-27T11:25:10.196Z,95033.00
2023-04-27T11:26:10.214Z,95035.00
2023-04-27T11:27:10.210Z,95037.00
2023-04-27T11:28:10.221Z,95037.00
2023-04-27T11:29:10.273Z,95037.00
2023-04-27T11:30:10.289Z,95037.00
2023-04-27T11:31:10.291Z,95039.00
2023-04-27T11:32:10.329Z,95039.00
2023-04-27T11:33:10.371Z,95041.00
2023-04-27T11:34:10.335Z,95043.00
2023-04-27T11:35:10.347Z,95043.00
2023-04-27T11:36:10.346Z,95043.00
2023-04-27T11:37:18.399Z,95039.00
2023-04-27T11:38:11.354Z,95045.00
2023-04-27T11:39:10.474Z,95039.00
2023-04-27T11:40:10.353Z,95037.00
2023-04-27T11:41:10.311Z,95033.00
2023-04-27T11:42:10.334Z,95035.00
2023-04-27T11:43:10.358Z,95033.00
2023-04-27T11:44:10.325Z,95027.00
2023-04-27T11:45:10.312Z,95025.00
2023-04-27T11:46:10.315Z,95023.00